sensor_id;sensor_type;location;lat;lon;timestamp;temperature;humidity
16966;DHT22;8599;47.852;12.070;2024-02-21T00:00:44;4.20;99.90
16966;DHT22;8599;47.852;12.070;2024-02-21T00:03:12;4.30;99.90
16966;DHT22;8599;47.852;12.070;2024-02-21T00:05:39;4.30;99.90
16966;DHT22;8599;47.852;12.070;2024-02-21T00:08:06;4.30;99.90
16966;DHT22;8599;47.852;12.070;2024-02-21T00:10:33;4.40;99.90
16966;DHT22;8599;47.852;12.070;2024-02-21T00:13:00;4.40;99.90
16966;DHT22;8599;47.852;12.070;2024-02-21T00:15:27;4.40;99.90
16966;DHT22;8599;47.852;12.070;2024-02-21T00:17:54;4.30;99.90
16966;DHT22;8599;47.852;12.070;2024-02-21T00:20:22;4.20;99.90
16966;DHT22;8599;47.852;12.070;2024-02-21T00:22:51;4.20;99.90
16966;DHT22;8599;47.852;12.070;2024-02-21T00:25:18;4.20;99.90
16966;DHT22;8599;47.852;12.070;2024-02-21T00:27:44;4.20;99.90
16966;DHT22;8599;47.852;12.070;2024-02-21T00:30:12;4.10;99.90
16966;DHT22;8599;47.852;12.070;2024-02-21T00:32:39;4.20;99.90
16966;DHT22;8599;47.852;12.070;2024-02-21T00:35:06;4.20;99.90
16966;DHT22;8599;47.852;12.070;2024-02-21T00:37:34;4.20;99.90
16966;DHT22;8599;47.852;12.070;2024-02-21T00:40:01;4.20;99.90
16966;DHT22;8599;47.852;12.070;2024-02-21T00:42:28;4.00;99.90
16966;DHT22;8599;47.852;12.070;2024-02-21T00:44:55;4.00;99.90
16966;DHT22;8599;47.852;12.070;2024-02-21T00:47:21;4.00;99.90
16966;DHT22;8599;47.852;12.070;2024-02-21T00:49:48;4.00;99.90
16966;DHT22;8599;47.852;12.070;2024-02-21T00:52:15;4.00;99.90
16966;DHT22;8599;47.852;12.070;2024-02-21T00:54:43;4.00;99.90
16966;DHT22;8599;47.852;12.070;2024-02-21T00:57:10;4.10;99.90
16966;DHT22;8599;47.852;12.070;2024-02-21T00:59:37;4.00;99.90
16966;DHT22;8599;47.852;12.070;2024-02-21T01:02:04;4.00;99.90
16966;DHT22;8599;47.852;12.070;2024-02-21T01:04:31;4.10;99.90
16966;DHT22;8599;47.852;12.070;2024-02-21T01:06:58;4.10;99.90
16966;DHT22;8599;47.852;12.070;2024-02-21T01:09:25;4.10;99.90
16966;DHT22;8599;47.852;12.070;2024-02-21T01:11:53;4.00;99.90
16966;DHT22;8599;47.852;12.070;2024-02-21T01:14:20;4.00;99.90
16966;DHT22;8599;47.852;12.070;2024-02-21T01:16:46;4.20;99.90
16966;DHT22;8599;47.852;12.070;2024-02-21T01:19:13;4.20;99.90
16966;DHT22;8599;47.852;12.070;2024-02-21T01:21:40;4.30;99.90
16966;DHT22;8599;47.852;12.070;2024-02-21T01:24:07;4.30;99.90
16966;DHT22;8599;47.852;12.070;2024-02-21T01:26:34;4.30;99.90
16966;DHT22;8599;47.852;12.070;2024-02-21T01:29:02;4.40;99.90
16966;DHT22;8599;47.852;12.070;2024-02-21T01:31:29;4.40;99.90
16966;DHT22;8599;47.852;12.070;2024-02-21T01:33:56;4.40;99.90
16966;DHT22;8599;47.852;12.070;2024-02-21T01:36:23;4.40;99.90
16966;DHT22;8599;47.852;12.070;2024-02-21T01:38:50;4.40;99.90
16966;DHT22;8599;47.852;12.070;2024-02-21T01:41:17;4.40;99.90
16966;DHT22;8599;47.852;12.070;2024-02-21T01:43:43;4.30;99.90
16966;DHT22;8599;47.852;12.070;2024-02-21T01:46:12;4.30;99.90
16966;DHT22;8599;47.852;12.070;2024-02-21T01:48:39;4.30;99.90
16966;DHT22;8599;47.852;12.070;2024-02-21T01:51:06;4.30;99.90
16966;DHT22;8599;47.852;12.070;2024-02-21T01:53:36;4.20;99.90
16966;DHT22;8599;47.852;12.070;2024-02-21T01:56:05;4.40;99.90
16966;DHT22;8599;47.852;12.070;2024-02-21T01:58:33;4.30;99.90
16966;DHT22;8599;47.852;12.070;2024-02-21T02:01:03;4.40;99.90
16966;DHT22;8599;47.852;12.070;2024-02-21T02:03:31;4.40;99.90
16966;DHT22;8599;47.852;12.070;2024-02-21T02:05:58;4.40;99.90
16966;DHT22;8599;47.852;12.070;2024-02-21T02:08:26;4.50;99.90
16966;DHT22;8599;47.852;12.070;2024-02-21T02:10:53;4.50;99.90
16966;DHT22;8599;47.852;12.070;2024-02-21T02:13:20;4.60;99.90
16966;DHT22;8599;47.852;12.070;2024-02-21T02:15:47;4.70;99.90
16966;DHT22;8599;47.852;12.070;2024-02-21T02:18:15;4.60;99.90
16966;DHT22;8599;47.852;12.070;2024-02-21T02:20:44;4.60;99.90
16966;DHT22;8599;47.852;12.070;2024-02-21T02:23:19;4.60;99.90
16966;DHT22;8599;47.852;12.070;2024-02-21T02:25:46;4.70;99.90
16966;DHT22;8599;47.852;12.070;2024-02-21T02:28:15;4.80;99.90
16966;DHT22;8599;47.852;12.070;2024-02-21T02:30:41;4.80;99.90
16966;DHT22;8599;47.852;12.070;2024-02-21T02:33:08;4.90;99.90
16966;DHT22;8599;47.852;12.070;2024-02-21T02:35:35;4.80;99.90
16966;DHT22;8599;47.852;12.070;2024-02-21T02:38:03;4.90;99.90
16966;DHT22;8599;47.852;12.070;2024-02-21T02:40:32;4.90;99.90
16966;DHT22;8599;47.852;12.070;2024-02-21T02:43:00;4.90;99.90
16966;DHT22;8599;47.852;12.070;2024-02-21T02:45:27;4.90;99.90
16966;DHT22;8599;47.852;12.070;2024-02-21T02:47:54;4.80;99.90
16966;DHT22;8599;47.852;12.070;2024-02-21T02:50:22;4.80;99.90
16966;DHT22;8599;47.852;12.070;2024-02-21T02:52:49;5.00;99.90
16966;DHT22;8599;47.852;12.070;2024-02-21T02:55:16;5.00;99.90
16966;DHT22;8599;47.852;12.070;2024-02-21T02:57:44;4.80;99.90
16966;DHT22;8599;47.852;12.070;2024-02-21T03:00:12;4.90;99.90
16966;DHT22;8599;47.852;12.070;2024-02-21T03:02:42;4.90;99.90
16966;DHT22;8599;47.852;12.070;2024-02-21T03:05:14;4.90;99.90
16966;DHT22;8599;47.852;12.070;2024-02-21T03:07:41;5.10;99.90
16966;DHT22;8599;47.852;12.070;2024-02-21T03:10:09;5.10;99.90
16966;DHT22;8599;47.852;12.070;2024-02-21T03:12:36;5.10;99.90
16966;DHT22;8599;47.852;12.070;2024-02-21T03:15:05;5.10;99.90
16966;DHT22;8599;47.852;12.070;2024-02-21T03:17:32;5.10;99.90
16966;DHT22;8599;47.852;12.070;2024-02-21T03:19:59;5.00;99.90
16966;DHT22;8599;47.852;12.070;2024-02-21T03:22:26;4.90;99.90
16966;DHT22;8599;47.852;12.070;2024-02-21T03:24:53;4.90;99.90
16966;DHT22;8599;47.852;12.070;2024-02-21T03:27:20;4.80;99.90
16966;DHT22;8599;47.852;12.070;2024-02-21T03:29:47;4.70;99.90
16966;DHT22;8599;47.852;12.070;2024-02-21T03:32:15;4.60;99.90
16966;DHT22;8599;47.852;12.070;2024-02-21T03:34:42;4.60;99.90
16966;DHT22;8599;47.852;12.070;2024-02-21T03:37:09;4.70;99.90
16966;DHT22;8599;47.852;12.070;2024-02-21T03:39:36;4.60;99.90
16966;DHT22;8599;47.852;12.070;2024-02-21T03:42:03;4.70;99.90
16966;DHT22;8599;47.852;12.070;2024-02-21T03:44:31;4.70;99.90
16966;DHT22;8599;47.852;12.070;2024-02-21T03:46:59;4.70;99.90
16966;DHT22;8599;47.852;12.070;2024-02-21T03:49:27;4.70;99.90
16966;DHT22;8599;47.852;12.070;2024-02-21T03:51:54;4.80;99.90
16966;DHT22;8599;47.852;12.070;2024-02-21T03:54:21;4.80;99.90
16966;DHT22;8599;47.852;12.070;2024-02-21T03:56:48;4.80;99.90
16966;DHT22;8599;47.852;12.070;2024-02-21T03:59:15;4.90;99.90
16966;DHT22;8599;47.852;12.070;2024-02-21T04:01:41;4.90;99.90
16966;DHT22;8599;47.852;12.070;2024-02-21T04:04:09;4.80;99.90
16966;DHT22;8599;47.852;12.070;2024-02-21T04:06:46;4.80;99.90
16966;DHT22;8599;47.852;12.070;2024-02-21T04:09:13;4.80;99.90
16966;DHT22;8599;47.852;12.070;2024-02-21T04:11:40;4.80;99.90
16966;DHT22;8599;47.852;12.070;2024-02-21T04:14:06;4.90;99.90
16966;DHT22;8599;47.852;12.070;2024-02-21T04:16:34;4.90;99.90
16966;DHT22;8599;47.852;12.070;2024-02-21T04:19:01;4.80;99.90
16966;DHT22;8599;47.852;12.070;2024-02-21T04:21:28;5.00;99.90
16966;DHT22;8599;47.852;12.070;2024-02-21T04:23:56;5.20;99.90
16966;DHT22;8599;47.852;12.070;2024-02-21T04:26:24;5.10;99.90
16966;DHT22;8599;47.852;12.070;2024-02-21T04:28:50;5.10;99.90
16966;DHT22;8599;47.852;12.070;2024-02-21T04:31:17;5.00;99.90
16966;DHT22;8599;47.852;12.070;2024-02-21T04:33:44;4.90;99.90
16966;DHT22;8599;47.852;12.070;2024-02-21T04:36:11;4.80;99.90
16966;DHT22;8599;47.852;12.070;2024-02-21T04:38:38;4.80;99.90
16966;DHT22;8599;47.852;12.070;2024-02-21T04:41:07;5.00;99.90
16966;DHT22;8599;47.852;12.070;2024-02-21T04:43:34;4.90;99.90
16966;DHT22;8599;47.852;12.070;2024-02-21T04:46:01;4.90;99.90
16966;DHT22;8599;47.852;12.070;2024-02-21T04:48:28;4.90;99.90
16966;DHT22;8599;47.852;12.070;2024-02-21T04:50:54;4.90;99.90
16966;DHT22;8599;47.852;12.070;2024-02-21T04:53:21;5.00;99.90
16966;DHT22;8599;47.852;12.070;2024-02-21T04:55:48;4.90;99.90
16966;DHT22;8599;47.852;12.070;2024-02-21T04:58:16;4.80;99.90
16966;DHT22;8599;47.852;12.070;2024-02-21T05:00:43;4.80;99.90
16966;DHT22;8599;47.852;12.070;2024-02-21T05:03:10;4.80;99.90
16966;DHT22;8599;47.852;12.070;2024-02-21T05:05:37;4.80;99.90
16966;DHT22;8599;47.852;12.070;2024-02-21T05:08:04;4.80;99.90
16966;DHT22;8599;47.852;12.070;2024-02-21T05:10:31;4.80;99.90
16966;DHT22;8599;47.852;12.070;2024-02-21T05:12:58;4.80;99.90
16966;DHT22;8599;47.852;12.070;2024-02-21T05:15:26;4.90;99.90
16966;DHT22;8599;47.852;12.070;2024-02-21T05:17:53;4.90;99.90
16966;DHT22;8599;47.852;12.070;2024-02-21T05:20:20;4.80;99.90
16966;DHT22;8599;47.852;12.070;2024-02-21T05:22:47;4.90;99.90
16966;DHT22;8599;47.852;12.070;2024-02-21T05:25:13;5.00;99.90
16966;DHT22;8599;47.852;12.070;2024-02-21T05:27:40;4.90;99.90
16966;DHT22;8599;47.852;12.070;2024-02-21T05:30:08;4.80;99.90
16966;DHT22;8599;47.852;12.070;2024-02-21T05:32:36;4.90;99.90
16966;DHT22;8599;47.852;12.070;2024-02-21T05:35:04;4.90;99.90
16966;DHT22;8599;47.852;12.070;2024-02-21T05:37:30;5.00;99.90
16966;DHT22;8599;47.852;12.070;2024-02-21T05:39:57;4.90;99.90
16966;DHT22;8599;47.852;12.070;2024-02-21T05:42:24;4.80;99.90
16966;DHT22;8599;47.852;12.070;2024-02-21T05:44:51;4.70;99.90
16966;DHT22;8599;47.852;12.070;2024-02-21T05:47:18;4.70;99.90
16966;DHT22;8599;47.852;12.070;2024-02-21T05:49:47;4.70;99.90
16966;DHT22;8599;47.852;12.070;2024-02-21T05:52:14;4.70;99.90
16966;DHT22;8599;47.852;12.070;2024-02-21T05:54:41;4.70;99.90
16966;DHT22;8599;47.852;12.070;2024-02-21T05:57:08;4.70;99.90
16966;DHT22;8599;47.852;12.070;2024-02-21T05:59:35;4.60;99.90
16966;DHT22;8599;47.852;12.070;2024-02-21T06:02:05;4.70;99.90
16966;DHT22;8599;47.852;12.070;2024-02-21T06:04:32;4.70;99.90
16966;DHT22;8599;47.852;12.070;2024-02-21T06:07:00;4.70;99.90
16966;DHT22;8599;47.852;12.070;2024-02-21T06:09:27;4.70;99.90
16966;DHT22;8599;47.852;12.070;2024-02-21T06:11:54;4.60;99.90
16966;DHT22;8599;47.852;12.070;2024-02-21T06:14:21;4.60;99.90
16966;DHT22;8599;47.852;12.070;2024-02-21T06:16:47;4.70;99.90
16966;DHT22;8599;47.852;12.070;2024-02-21T06:19:14;4.60;99.90
16966;DHT22;8599;47.852;12.070;2024-02-21T06:21:41;4.50;99.90
16966;DHT22;8599;47.852;12.070;2024-02-21T06:24:09;4.50;99.90
16966;DHT22;8599;47.852;12.070;2024-02-21T06:26:37;4.40;99.90
16966;DHT22;8599;47.852;12.070;2024-02-21T06:29:05;4.40;99.90
16966;DHT22;8599;47.852;12.070;2024-02-21T06:31:32;4.30;99.90
16966;DHT22;8599;47.852;12.070;2024-02-21T06:33:59;4.40;99.90
16966;DHT22;8599;47.852;12.070;2024-02-21T06:36:26;4.40;99.90
16966;DHT22;8599;47.852;12.070;2024-02-21T06:38:52;4.40;99.90
16966;DHT22;8599;47.852;12.070;2024-02-21T06:41:21;4.30;99.90
16966;DHT22;8599;47.852;12.070;2024-02-21T06:43:48;4.30;99.90
16966;DHT22;8599;47.852;12.070;2024-02-21T06:46:23;4.30;99.90
16966;DHT22;8599;47.852;12.070;2024-02-21T06:48:50;4.40;99.90
16966;DHT22;8599;47.852;12.070;2024-02-21T06:51:17;4.40;99.90
16966;DHT22;8599;47.852;12.070;2024-02-21T06:53:44;4.50;99.90
16966;DHT22;8599;47.852;12.070;2024-02-21T06:56:11;4.40;99.90
16966;DHT22;8599;47.852;12.070;2024-02-21T06:58:39;4.50;99.90
16966;DHT22;8599;47.852;12.070;2024-02-21T07:01:07;4.50;99.90
16966;DHT22;8599;47.852;12.070;2024-02-21T07:03:34;4.60;99.90
16966;DHT22;8599;47.852;12.070;2024-02-21T07:06:01;4.50;99.90
16966;DHT22;8599;47.852;12.070;2024-02-21T07:08:28;4.50;99.90
16966;DHT22;8599;47.852;12.070;2024-02-21T07:10:55;4.50;99.90
16966;DHT22;8599;47.852;12.070;2024-02-21T07:13:21;4.50;99.90
16966;DHT22;8599;47.852;12.070;2024-02-21T07:15:50;4.70;99.90
16966;DHT22;8599;47.852;12.070;2024-02-21T07:18:16;4.80;99.90
16966;DHT22;8599;47.852;12.070;2024-02-21T07:20:43;4.90;99.90
16966;DHT22;8599;47.852;12.070;2024-02-21T07:23:10;4.90;99.90
16966;DHT22;8599;47.852;12.070;2024-02-21T07:25:37;5.00;99.90
16966;DHT22;8599;47.852;12.070;2024-02-21T07:28:05;5.10;99.90
16966;DHT22;8599;47.852;12.070;2024-02-21T07:30:33;5.20;99.90
16966;DHT22;8599;47.852;12.070;2024-02-21T07:33:02;5.30;99.90
16966;DHT22;8599;47.852;12.070;2024-02-21T07:35:29;5.30;99.90
16966;DHT22;8599;47.852;12.070;2024-02-21T07:37:56;5.30;99.90
16966;DHT22;8599;47.852;12.070;2024-02-21T07:40:23;5.30;99.90
16966;DHT22;8599;47.852;12.070;2024-02-21T07:42:49;5.30;99.90
16966;DHT22;8599;47.852;12.070;2024-02-21T07:45:17;5.40;99.90
16966;DHT22;8599;47.852;12.070;2024-02-21T07:47:43;5.40;99.90
16966;DHT22;8599;47.852;12.070;2024-02-21T07:50:12;5.50;99.90
16966;DHT22;8599;47.852;12.070;2024-02-21T07:52:38;5.40;99.90
16966;DHT22;8599;47.852;12.070;2024-02-21T07:55:06;5.50;99.90
16966;DHT22;8599;47.852;12.070;2024-02-21T07:57:32;5.50;99.90
16966;DHT22;8599;47.852;12.070;2024-02-21T07:59:59;5.50;99.90
16966;DHT22;8599;47.852;12.070;2024-02-21T08:02:26;5.40;99.90
16966;DHT22;8599;47.852;12.070;2024-02-21T08:04:53;5.40;99.90
16966;DHT22;8599;47.852;12.070;2024-02-21T08:07:21;5.60;99.90
16966;DHT22;8599;47.852;12.070;2024-02-21T08:09:48;5.50;99.90
16966;DHT22;8599;47.852;12.070;2024-02-21T08:12:14;5.60;99.90
16966;DHT22;8599;47.852;12.070;2024-02-21T08:14:41;5.60;99.90
16966;DHT22;8599;47.852;12.070;2024-02-21T08:17:09;5.60;99.90
16966;DHT22;8599;47.852;12.070;2024-02-21T08:19:36;5.60;99.90
16966;DHT22;8599;47.852;12.070;2024-02-21T08:22:03;5.60;99.90
16966;DHT22;8599;47.852;12.070;2024-02-21T08:24:31;5.50;99.90
16966;DHT22;8599;47.852;12.070;2024-02-21T08:26:58;5.60;99.90
16966;DHT22;8599;47.852;12.070;2024-02-21T08:29:25;5.60;99.90
16966;DHT22;8599;47.852;12.070;2024-02-21T08:31:53;5.70;99.90
16966;DHT22;8599;47.852;12.070;2024-02-21T08:34:20;5.80;99.90
16966;DHT22;8599;47.852;12.070;2024-02-21T08:36:46;6.00;99.90
16966;DHT22;8599;47.852;12.070;2024-02-21T08:39:13;5.90;99.90
16966;DHT22;8599;47.852;12.070;2024-02-21T08:41:43;6.00;99.90
16966;DHT22;8599;47.852;12.070;2024-02-21T08:44:10;6.00;99.90
16966;DHT22;8599;47.852;12.070;2024-02-21T08:46:36;6.00;99.90
16966;DHT22;8599;47.852;12.070;2024-02-21T08:49:05;6.00;99.90
16966;DHT22;8599;47.852;12.070;2024-02-21T08:51:32;6.10;99.90
16966;DHT22;8599;47.852;12.070;2024-02-21T08:53:59;6.10;99.90
16966;DHT22;8599;47.852;12.070;2024-02-21T08:56:26;6.10;99.90
16966;DHT22;8599;47.852;12.070;2024-02-21T08:58:54;6.10;99.90
16966;DHT22;8599;47.852;12.070;2024-02-21T09:01:22;6.30;99.90
16966;DHT22;8599;47.852;12.070;2024-02-21T09:03:49;6.40;99.90
16966;DHT22;8599;47.852;12.070;2024-02-21T09:06:19;6.50;99.90
16966;DHT22;8599;47.852;12.070;2024-02-21T09:08:46;6.60;99.90
16966;DHT22;8599;47.852;12.070;2024-02-21T09:11:13;6.60;99.90
16966;DHT22;8599;47.852;12.070;2024-02-21T09:13:40;6.70;99.90
16966;DHT22;8599;47.852;12.070;2024-02-21T09:16:09;6.90;99.90
16966;DHT22;8599;47.852;12.070;2024-02-21T09:18:36;7.10;99.90
16966;DHT22;8599;47.852;12.070;2024-02-21T09:21:03;7.00;99.90
16966;DHT22;8599;47.852;12.070;2024-02-21T09:23:30;7.00;99.90
16966;DHT22;8599;47.852;12.070;2024-02-21T09:25:57;6.90;99.90
16966;DHT22;8599;47.852;12.070;2024-02-21T09:28:26;6.90;99.90
16966;DHT22;8599;47.852;12.070;2024-02-21T09:30:52;7.00;99.90
16966;DHT22;8599;47.852;12.070;2024-02-21T09:33:21;7.10;99.90
16966;DHT22;8599;47.852;12.070;2024-02-21T09:35:47;7.30;99.90
16966;DHT22;8599;47.852;12.070;2024-02-21T09:38:15;7.40;99.90
16966;DHT22;8599;47.852;12.070;2024-02-21T09:40:42;7.50;99.90
16966;DHT22;8599;47.852;12.070;2024-02-21T09:43:08;7.60;99.90
16966;DHT22;8599;47.852;12.070;2024-02-21T09:45:35;7.60;99.90
16966;DHT22;8599;47.852;12.070;2024-02-21T09:48:17;7.60;99.90
16966;DHT22;8599;47.852;12.070;2024-02-21T09:50:50;7.50;99.90
16966;DHT22;8599;47.852;12.070;2024-02-21T09:53:18;7.50;99.90
16966;DHT22;8599;47.852;12.070;2024-02-21T09:55:46;7.50;99.90
16966;DHT22;8599;47.852;12.070;2024-02-21T09:58:15;7.40;99.90
16966;DHT22;8599;47.852;12.070;2024-02-21T10:00:42;7.40;99.90
16966;DHT22;8599;47.852;12.070;2024-02-21T10:03:09;7.40;99.90
16966;DHT22;8599;47.852;12.070;2024-02-21T10:05:36;7.40;99.90
16966;DHT22;8599;47.852;12.070;2024-02-21T10:08:05;7.40;99.90
16966;DHT22;8599;47.852;12.070;2024-02-21T10:10:41;7.40;99.90
16966;DHT22;8599;47.852;12.070;2024-02-21T10:13:09;7.40;99.90
16966;DHT22;8599;47.852;12.070;2024-02-21T10:15:36;7.50;99.90
16966;DHT22;8599;47.852;12.070;2024-02-21T10:18:03;7.50;99.90
16966;DHT22;8599;47.852;12.070;2024-02-21T10:20:30;7.60;99.90
16966;DHT22;8599;47.852;12.070;2024-02-21T10:23:05;7.70;99.90
16966;DHT22;8599;47.852;12.070;2024-02-21T10:25:35;7.80;99.90
16966;DHT22;8599;47.852;12.070;2024-02-21T10:28:04;7.80;99.90
16966;DHT22;8599;47.852;12.070;2024-02-21T10:30:31;7.90;99.90
16966;DHT22;8599;47.852;12.070;2024-02-21T10:32:57;8.00;99.90
16966;DHT22;8599;47.852;12.070;2024-02-21T10:35:28;8.00;99.90
16966;DHT22;8599;47.852;12.070;2024-02-21T10:37:55;8.10;99.90
16966;DHT22;8599;47.852;12.070;2024-02-21T10:40:25;8.20;99.90
16966;DHT22;8599;47.852;12.070;2024-02-21T10:42:56;8.30;99.90
16966;DHT22;8599;47.852;12.070;2024-02-21T10:45:28;8.40;99.90
16966;DHT22;8599;47.852;12.070;2024-02-21T10:47:56;8.50;99.90
16966;DHT22;8599;47.852;12.070;2024-02-21T10:50:31;8.40;99.90
16966;DHT22;8599;47.852;12.070;2024-02-21T10:53:07;8.30;99.90
16966;DHT22;8599;47.852;12.070;2024-02-21T10:55:40;8.30;99.90
16966;DHT22;8599;47.852;12.070;2024-02-21T10:58:09;8.30;99.90
16966;DHT22;8599;47.852;12.070;2024-02-21T11:00:37;8.40;99.90
16966;DHT22;8599;47.852;12.070;2024-02-21T11:03:04;8.50;99.90
16966;DHT22;8599;47.852;12.070;2024-02-21T11:05:32;8.60;99.90
16966;DHT22;8599;47.852;12.070;2024-02-21T11:07:59;8.70;99.90
16966;DHT22;8599;47.852;12.070;2024-02-21T11:10:27;8.90;99.90
16966;DHT22;8599;47.852;12.070;2024-02-21T11:13:05;9.10;99.90
16966;DHT22;8599;47.852;12.070;2024-02-21T11:15:33;9.20;99.90
16966;DHT22;8599;47.852;12.070;2024-02-21T11:18:00;9.30;99.90
16966;DHT22;8599;47.852;12.070;2024-02-21T11:20:33;9.30;99.90
16966;DHT22;8599;47.852;12.070;2024-02-21T11:23:00;9.40;99.90
16966;DHT22;8599;47.852;12.070;2024-02-21T11:25:28;9.50;99.90
16966;DHT22;8599;47.852;12.070;2024-02-21T11:28:02;9.50;99.90
16966;DHT22;8599;47.852;12.070;2024-02-21T11:30:30;9.50;99.90
16966;DHT22;8599;47.852;12.070;2024-02-21T11:33:02;9.60;99.90
16966;DHT22;8599;47.852;12.070;2024-02-21T11:35:32;9.60;99.90
16966;DHT22;8599;47.852;12.070;2024-02-21T11:38:10;9.60;99.90
16966;DHT22;8599;47.852;12.070;2024-02-21T11:40:40;9.80;99.90
16966;DHT22;8599;47.852;12.070;2024-02-21T11:43:09;9.90;99.90
16966;DHT22;8599;47.852;12.070;2024-02-21T11:45:36;10.00;99.90
16966;DHT22;8599;47.852;12.070;2024-02-21T11:48:05;10.10;99.90
16966;DHT22;8599;47.852;12.070;2024-02-21T11:50:33;10.20;99.90
16966;DHT22;8599;47.852;12.070;2024-02-21T11:53:00;10.30;99.90
16966;DHT22;8599;47.852;12.070;2024-02-21T11:55:28;10.50;99.90
16966;DHT22;8599;47.852;12.070;2024-02-21T11:57:54;10.60;99.90
16966;DHT22;8599;47.852;12.070;2024-02-21T12:00:25;10.60;99.90
16966;DHT22;8599;47.852;12.070;2024-02-21T12:02:52;10.70;99.90
16966;DHT22;8599;47.852;12.070;2024-02-21T12:05:19;10.70;99.90
16966;DHT22;8599;47.852;12.070;2024-02-21T12:07:46;10.80;99.90
16966;DHT22;8599;47.852;12.070;2024-02-21T12:10:13;10.90;99.90
16966;DHT22;8599;47.852;12.070;2024-02-21T12:12:40;10.80;99.90
16966;DHT22;8599;47.852;12.070;2024-02-21T12:15:08;10.80;99.90
16966;DHT22;8599;47.852;12.070;2024-02-21T12:17:36;10.90;99.90
16966;DHT22;8599;47.852;12.070;2024-02-21T12:20:04;11.00;99.90
16966;DHT22;8599;47.852;12.070;2024-02-21T12:22:35;11.00;99.90
16966;DHT22;8599;47.852;12.070;2024-02-21T12:25:03;11.00;99.90
16966;DHT22;8599;47.852;12.070;2024-02-21T12:27:33;11.10;99.90
16966;DHT22;8599;47.852;12.070;2024-02-21T12:30:00;11.30;99.90
16966;DHT22;8599;47.852;12.070;2024-02-21T12:32:27;11.50;99.90
16966;DHT22;8599;47.852;12.070;2024-02-21T12:34:55;11.60;99.90
16966;DHT22;8599;47.852;12.070;2024-02-21T12:37:22;11.60;99.90
16966;DHT22;8599;47.852;12.070;2024-02-21T12:39:50;11.60;99.90
16966;DHT22;8599;47.852;12.070;2024-02-21T12:42:17;11.60;99.90
16966;DHT22;8599;47.852;12.070;2024-02-21T12:44:44;11.60;99.90
16966;DHT22;8599;47.852;12.070;2024-02-21T12:47:11;11.60;99.90
16966;DHT22;8599;47.852;12.070;2024-02-21T12:49:38;11.60;99.90
16966;DHT22;8599;47.852;12.070;2024-02-21T12:52:06;11.70;99.90
16966;DHT22;8599;47.852;12.070;2024-02-21T12:54:33;11.60;99.90
16966;DHT22;8599;47.852;12.070;2024-02-21T12:56:59;11.80;99.90
16966;DHT22;8599;47.852;12.070;2024-02-21T12:59:28;11.90;99.90
16966;DHT22;8599;47.852;12.070;2024-02-21T13:01:55;12.00;99.90
16966;DHT22;8599;47.852;12.070;2024-02-21T13:04:22;12.10;99.90
16966;DHT22;8599;47.852;12.070;2024-02-21T13:06:49;12.10;99.90
16966;DHT22;8599;47.852;12.070;2024-02-21T13:09:18;12.30;99.90
16966;DHT22;8599;47.852;12.070;2024-02-21T13:11:45;12.40;99.90
16966;DHT22;8599;47.852;12.070;2024-02-21T13:14:12;12.40;99.80
16966;DHT22;8599;47.852;12.070;2024-02-21T13:16:39;12.50;99.80
16966;DHT22;8599;47.852;12.070;2024-02-21T13:19:06;12.60;99.90
16966;DHT22;8599;47.852;12.070;2024-02-21T13:21:33;12.60;99.90
16966;DHT22;8599;47.852;12.070;2024-02-21T13:24:01;12.70;99.30
16966;DHT22;8599;47.852;12.070;2024-02-21T13:26:29;12.60;99.10
16966;DHT22;8599;47.852;12.070;2024-02-21T13:28:56;12.60;99.40
16966;DHT22;8599;47.852;12.070;2024-02-21T13:31:22;12.70;99.90
16966;DHT22;8599;47.852;12.070;2024-02-21T13:33:50;12.90;99.50
16966;DHT22;8599;47.852;12.070;2024-02-21T13:36:17;12.90;98.60
16966;DHT22;8599;47.852;12.070;2024-02-21T13:38:44;13.00;98.50
16966;DHT22;8599;47.852;12.070;2024-02-21T13:41:12;13.00;98.70
16966;DHT22;8599;47.852;12.070;2024-02-21T13:43:40;13.10;99.10
16966;DHT22;8599;47.852;12.070;2024-02-21T13:46:07;13.20;99.20
16966;DHT22;8599;47.852;12.070;2024-02-21T13:48:35;13.20;97.70
16966;DHT22;8599;47.852;12.070;2024-02-21T13:51:02;13.30;97.60
16966;DHT22;8599;47.852;12.070;2024-02-21T13:53:29;13.50;97.30
16966;DHT22;8599;47.852;12.070;2024-02-21T13:55:56;13.70;97.20
16966;DHT22;8599;47.852;12.070;2024-02-21T13:58:23;13.80;96.90
16966;DHT22;8599;47.852;12.070;2024-02-21T14:00:52;13.80;96.50
16966;DHT22;8599;47.852;12.070;2024-02-21T14:03:19;13.80;95.60
16966;DHT22;8599;47.852;12.070;2024-02-21T14:05:46;13.60;95.90
16966;DHT22;8599;47.852;12.070;2024-02-21T14:08:14;13.60;96.90
16966;DHT22;8599;47.852;12.070;2024-02-21T14:10:41;13.70;96.80
16966;DHT22;8599;47.852;12.070;2024-02-21T14:13:08;13.70;97.00
16966;DHT22;8599;47.852;12.070;2024-02-21T14:15:34;13.60;97.00
16966;DHT22;8599;47.852;12.070;2024-02-21T14:18:04;13.50;97.30
16966;DHT22;8599;47.852;12.070;2024-02-21T14:20:34;13.50;97.60
16966;DHT22;8599;47.852;12.070;2024-02-21T14:23:01;13.40;97.30
16966;DHT22;8599;47.852;12.070;2024-02-21T14:25:30;13.30;97.60
16966;DHT22;8599;47.852;12.070;2024-02-21T14:27:56;13.30;97.40
16966;DHT22;8599;47.852;12.070;2024-02-21T14:30:23;13.20;97.10
16966;DHT22;8599;47.852;12.070;2024-02-21T14:32:51;13.00;96.50
16966;DHT22;8599;47.852;12.070;2024-02-21T14:35:19;12.90;97.10
16966;DHT22;8599;47.852;12.070;2024-02-21T14:37:46;12.90;97.10
16966;DHT22;8599;47.852;12.070;2024-02-21T14:40:14;12.80;96.90
16966;DHT22;8599;47.852;12.070;2024-02-21T14:42:41;12.80;96.70
16966;DHT22;8599;47.852;12.070;2024-02-21T14:45:09;12.70;97.00
16966;DHT22;8599;47.852;12.070;2024-02-21T14:47:35;12.70;96.90
16966;DHT22;8599;47.852;12.070;2024-02-21T14:50:03;12.70;97.00
16966;DHT22;8599;47.852;12.070;2024-02-21T14:52:32;12.70;97.60
16966;DHT22;8599;47.852;12.070;2024-02-21T14:55:00;12.80;98.00
16966;DHT22;8599;47.852;12.070;2024-02-21T14:57:28;12.80;97.20
16966;DHT22;8599;47.852;12.070;2024-02-21T14:59:55;12.70;97.30
16966;DHT22;8599;47.852;12.070;2024-02-21T15:02:24;12.70;97.60
16966;DHT22;8599;47.852;12.070;2024-02-21T15:04:53;12.70;98.20
16966;DHT22;8599;47.852;12.070;2024-02-21T15:07:20;12.60;97.80
16966;DHT22;8599;47.852;12.070;2024-02-21T15:09:50;12.60;98.30
16966;DHT22;8599;47.852;12.070;2024-02-21T15:12:17;12.70;97.90
16966;DHT22;8599;47.852;12.070;2024-02-21T15:14:44;12.60;97.80
16966;DHT22;8599;47.852;12.070;2024-02-21T15:17:11;12.60;98.00
16966;DHT22;8599;47.852;12.070;2024-02-21T15:19:38;12.60;98.10
16966;DHT22;8599;47.852;12.070;2024-02-21T15:22:09;12.60;98.50
16966;DHT22;8599;47.852;12.070;2024-02-21T15:24:37;12.70;98.70
16966;DHT22;8599;47.852;12.070;2024-02-21T15:27:06;12.60;98.00
16966;DHT22;8599;47.852;12.070;2024-02-21T15:29:34;12.60;98.40
16966;DHT22;8599;47.852;12.070;2024-02-21T15:32:01;12.60;98.40
16966;DHT22;8599;47.852;12.070;2024-02-21T15:34:28;12.50;98.60
16966;DHT22;8599;47.852;12.070;2024-02-21T15:36:55;12.40;99.00
16966;DHT22;8599;47.852;12.070;2024-02-21T15:39:21;12.30;99.40
16966;DHT22;8599;47.852;12.070;2024-02-21T15:41:49;12.20;99.80
16966;DHT22;8599;47.852;12.070;2024-02-21T15:44:17;12.10;99.90